sensor_id;sensor_type;location;lat;lon;timestamp;P1;durP1;ratioP1;P2;durP2;ratioP2
76094;SDS011;64821;13.710;100.604;2023-07-08T00:01:04;7.82;;;2.40;;
76094;SDS011;64821;13.710;100.604;2023-07-08T00:02:11;6.37;;;2.33;;
76094;SDS011;64821;13.710;100.604;2023-07-08T00:03:16;6.85;;;1.90;;
76094;SDS011;64821;13.710;100.604;2023-07-08T00:04:20;6.03;;;2.17;;
76094;SDS011;64821;13.710;100.604;2023-07-08T00:05:26;6.68;;;2.17;;
76094;SDS011;64821;13.710;100.604;2023-07-08T00:06:30;7.47;;;2.13;;
76094;SDS011;64821;13.710;100.604;2023-07-08T00:07:34;6.97;;;2.20;;
76094;SDS011;64821;13.710;100.604;2023-07-08T00:08:37;6.60;;;2.25;;
76094;SDS011;64821;13.710;100.604;2023-07-08T00:09:41;6.15;;;2.10;;
76094;SDS011;64821;13.710;100.604;2023-07-08T00:10:46;7.20;;;2.20;;
76094;SDS011;64821;13.710;100.604;2023-07-08T00:11:49;6.85;;;2.20;;
76094;SDS011;64821;13.710;100.604;2023-07-08T00:12:54;6.70;;;2.37;;
76094;SDS011;64821;13.710;100.604;2023-07-08T00:13:59;5.97;;;2.40;;
76094;SDS011;64821;13.710;100.604;2023-07-08T00:15:04;6.40;;;2.35;;
76094;SDS011;64821;13.710;100.604;2023-07-08T00:16:09;5.85;;;2.03;;
76094;SDS011;64821;13.710;100.604;2023-07-08T00:17:14;6.55;;;2.15;;
76094;SDS011;64821;13.710;100.604;2023-07-08T00:18:18;6.23;;;2.13;;
76094;SDS011;64821;13.710;100.604;2023-07-08T00:19:22;6.05;;;2.25;;
76094;SDS011;64821;13.710;100.604;2023-07-08T00:20:30;5.88;;;2.10;;
76094;SDS011;64821;13.710;100.604;2023-07-08T00:21:39;6.35;;;2.38;;
76094;SDS011;64821;13.710;100.604;2023-07-08T00:22:43;7.15;;;2.33;;
76094;SDS011;64821;13.710;100.604;2023-07-08T00:23:48;5.57;;;2.00;;
76094;SDS011;64821;13.710;100.604;2023-07-08T00:24:53;6.75;;;1.92;;
76094;SDS011;64821;13.710;100.604;2023-07-08T00:25:57;6.38;;;2.00;;
76094;SDS011;64821;13.710;100.604;2023-07-08T00:27:01;6.18;;;2.13;;
76094;SDS011;64821;13.710;100.604;2023-07-08T00:28:07;6.53;;;2.17;;
76094;SDS011;64821;13.710;100.604;2023-07-08T00:29:12;6.70;;;2.00;;
76094;SDS011;64821;13.710;100.604;2023-07-08T00:30:20;6.00;;;2.00;;
76094;SDS011;64821;13.710;100.604;2023-07-08T00:31:25;6.35;;;2.33;;
76094;SDS011;64821;13.710;100.604;2023-07-08T00:32:29;6.05;;;2.08;;
76094;SDS011;64821;13.710;100.604;2023-07-08T00:33:34;6.80;;;2.30;;
76094;SDS011;64821;13.710;100.604;2023-07-08T00:34:37;5.60;;;1.80;;
76094;SDS011;64821;13.710;100.604;2023-07-08T00:35:44;6.57;;;2.10;;
76094;SDS011;64821;13.710;100.604;2023-07-08T00:36:48;5.90;;;2.15;;
76094;SDS011;64821;13.710;100.604;2023-07-08T00:37:52;6.70;;;2.17;;
76094;SDS011;64821;13.710;100.604;2023-07-08T00:38:56;6.35;;;2.13;;
76094;SDS011;64821;13.710;100.604;2023-07-08T00:40:01;5.70;;;2.10;;
76094;SDS011;64821;13.710;100.604;2023-07-08T00:41:16;7.93;;;2.08;;
76094;SDS011;64821;13.710;100.604;2023-07-08T00:42:24;7.15;;;2.30;;
76094;SDS011;64821;13.710;100.604;2023-07-08T00:43:30;6.50;;;2.60;;
76094;SDS011;64821;13.710;100.604;2023-07-08T00:44:38;7.22;;;2.38;;
76094;SDS011;64821;13.710;100.604;2023-07-08T00:45:45;6.50;;;2.53;;
76094;SDS011;64821;13.710;100.604;2023-07-08T00:47:05;6.95;;;2.53;;
76094;SDS011;64821;13.710;100.604;2023-07-08T00:48:15;6.35;;;2.47;;
76094;SDS011;64821;13.710;100.604;2023-07-08T00:49:26;5.90;;;2.28;;
76094;SDS011;64821;13.710;100.604;2023-07-08T00:50:37;6.70;;;2.17;;
76094;SDS011;64821;13.710;100.604;2023-07-08T00:51:42;6.63;;;2.50;;
76094;SDS011;64821;13.710;100.604;2023-07-08T00:52:46;7.03;;;2.30;;
76094;SDS011;64821;13.710;100.604;2023-07-08T00:53:50;7.20;;;2.38;;
76094;SDS011;64821;13.710;100.604;2023-07-08T00:54:54;7.30;;;2.20;;
76094;SDS011;64821;13.710;100.604;2023-07-08T00:56:00;7.95;;;2.90;;
76094;SDS011;64821;13.710;100.604;2023-07-08T00:57:06;7.13;;;2.30;;
76094;SDS011;64821;13.710;100.604;2023-07-08T00:58:10;6.50;;;2.10;;
76094;SDS011;64821;13.710;100.604;2023-07-08T00:59:18;6.28;;;2.30;;
76094;SDS011;64821;13.710;100.604;2023-07-08T01:00:27;6.30;;;2.20;;
76094;SDS011;64821;13.710;100.604;2023-07-08T01:01:31;6.22;;;2.03;;
76094;SDS011;64821;13.710;100.604;2023-07-08T01:02:40;6.87;;;2.33;;
76094;SDS011;64821;13.710;100.604;2023-07-08T01:03:48;6.88;;;2.22;;
76094;SDS011;64821;13.710;100.604;2023-07-08T01:04:55;6.55;;;2.05;;
76094;SDS011;64821;13.710;100.604;2023-07-08T01:06:02;6.93;;;2.60;;
76094;SDS011;64821;13.710;100.604;2023-07-08T20:01:37;6.68;;;2.55;;
76094;SDS011;64821;13.710;100.604;2023-07-08T20:02:41;5.38;;;1.90;;
76094;SDS011;64821;13.710;100.604;2023-07-08T20:03:45;5.28;;;1.88;;
76094;SDS011;64821;13.710;100.604;2023-07-08T20:04:48;5.43;;;2.00;;
76094;SDS011;64821;13.710;100.604;2023-07-08T20:05:52;5.55;;;1.90;;
76094;SDS011;64821;13.710;100.604;2023-07-08T20:06:56;5.53;;;1.88;;
76094;SDS011;64821;13.710;100.604;2023-07-08T20:08:00;4.90;;;1.65;;
76094;SDS011;64821;13.710;100.604;2023-07-08T20:09:07;5.38;;;1.65;;
76094;SDS011;64821;13.710;100.604;2023-07-08T20:10:15;5.90;;;1.80;;
76094;SDS011;64821;13.710;100.604;2023-07-08T20:11:20;5.00;;;1.83;;
76094;SDS011;64821;13.710;100.604;2023-07-08T20:12:23;5.03;;;1.60;;
76094;SDS011;64821;13.710;100.604;2023-07-08T20:13:29;5.25;;;1.60;;
76094;SDS011;64821;13.710;100.604;2023-07-08T20:14:34;5.60;;;1.70;;
76094;SDS011;64821;13.710;100.604;2023-07-08T20:15:38;7.07;;;1.77;;
76094;SDS011;64821;13.710;100.604;2023-07-08T20:16:43;5.72;;;1.70;;
76094;SDS011;64821;13.710;100.604;2023-07-08T20:17:47;5.40;;;2.00;;
76094;SDS011;64821;13.710;100.604;2023-07-08T20:18:50;5.65;;;1.70;;
76094;SDS011;64821;13.710;100.604;2023-07-08T20:19:54;5.72;;;1.60;;
76094;SDS011;64821;13.710;100.604;2023-07-08T20:20:58;5.37;;;1.70;;
76094;SDS011;64821;13.710;100.604;2023-07-08T20:22:02;6.15;;;1.42;;
76094;SDS011;64821;13.710;100.604;2023-07-08T20:23:07;6.75;;;1.63;;
76094;SDS011;64821;13.710;100.604;2023-07-08T20:24:15;7.53;;;1.70;;
76094;SDS011;64821;13.710;100.604;2023-07-08T20:25:19;5.63;;;1.60;;
76094;SDS011;64821;13.710;100.604;2023-07-08T20:26:26;5.00;;;1.30;;
76094;SDS011;64821;13.710;100.604;2023-07-08T20:27:32;4.93;;;1.30;;
76094;SDS011;64821;13.710;100.604;2023-07-08T20:28:36;5.43;;;1.50;;
76094;SDS011;64821;13.710;100.604;2023-07-08T20:29:47;5.50;;;1.45;;
76094;SDS011;64821;13.710;100.604;2023-07-08T20:30:51;4.75;;;1.40;;
76094;SDS011;64821;13.710;100.604;2023-07-08T20:31:57;4.80;;;1.50;;
76094;SDS011;64821;13.710;100.604;2023-07-08T20:33:00;5.88;;;1.50;;
76094;SDS011;64821;13.710;100.604;2023-07-08T20:34:04;4.93;;;1.50;;
76094;SDS011;64821;13.710;100.604;2023-07-08T20:35:11;5.60;;;1.30;;
76094;SDS011;64821;13.710;100.604;2023-07-08T20:36:15;4.72;;;1.42;;
76094;SDS011;64821;13.710;100.604;2023-07-08T20:37:20;5.10;;;1.37;;
76094;SDS011;64821;13.710;100.604;2023-07-08T20:38:28;4.82;;;1.42;;
76094;SDS011;64821;13.710;100.604;2023-07-08T20:39:31;4.90;;;1.60;;
76094;SDS011;64821;13.710;100.604;2023-07-08T20:40:35;6.13;;;1.40;;
76094;SDS011;64821;13.710;100.604;2023-07-08T20:41:39;4.60;;;1.35;;
76094;SDS011;64821;13.710;100.604;2023-07-08T20:42:43;5.60;;;1.50;;
76094;SDS011;64821;13.710;100.604;2023-07-08T20:43:46;5.35;;;1.35;;
76094;SDS011;64821;13.710;100.604;2023-07-08T20:44:50;5.40;;;1.30;;
76094;SDS011;64821;13.710;100.604;2023-07-08T20:45:54;6.45;;;1.50;;
76094;SDS011;64821;13.710;100.604;2023-07-08T20:47:00;4.75;;;1.40;;
76094;SDS011;64821;13.710;100.604;2023-07-08T20:48:06;5.10;;;1.40;;
76094;SDS011;64821;13.710;100.604;2023-07-08T20:49:15;5.75;;;1.70;;
76094;SDS011;64821;13.710;100.604;2023-07-08T20:50:20;5.38;;;1.40;;
76094;SDS011;64821;13.710;100.604;2023-07-08T20:51:24;4.93;;;1.13;;
76094;SDS011;64821;13.710;100.604;2023-07-08T20:52:28;5.50;;;1.45;;
76094;SDS011;64821;13.710;100.604;2023-07-08T20:53:32;5.00;;;1.40;;
76094;SDS011;64821;13.710;100.604;2023-07-08T20:54:36;5.05;;;1.30;;
76094;SDS011;64821;13.710;100.604;2023-07-08T20:55:40;5.03;;;1.23;;
76094;SDS011;64821;13.710;100.604;2023-07-08T20:56:45;4.53;;;1.20;;
76094;SDS011;64821;13.710;100.604;2023-07-08T20:57:49;5.50;;;1.20;;
76094;SDS011;64821;13.710;100.604;2023-07-08T20:58:53;4.33;;;1.00;;
76094;SDS011;64821;13.710;100.604;2023-07-08T20:59:57;5.18;;;1.35;;
76094;SDS011;64821;13.710;100.604;2023-07-08T21:01:00;4.65;;;1.15;;
76094;SDS011;64821;13.710;100.604;2023-07-08T21:02:17;5.05;;;1.20;;
76094;SDS011;64821;13.710;100.604;2023-07-08T21:03:24;5.50;;;1.40;;
76094;SDS011;64821;13.710;100.604;2023-07-08T21:04:28;4.50;;;1.20;;
76094;SDS011;64821;13.710;100.604;2023-07-08T21:05:31;4.97;;;1.40;;
76094;SDS011;64821;13.710;100.604;2023-07-08T21:06:35;5.13;;;1.20;;
76094;SDS011;64821;13.710;100.604;2023-07-08T21:07:39;4.40;;;1.10;;
76094;SDS011;64821;13.710;100.604;2023-07-08T21:08:43;5.55;;;1.40;;
76094;SDS011;64821;13.710;100.604;2023-07-08T21:09:47;6.73;;;1.30;;
76094;SDS011;64821;13.710;100.604;2023-07-08T21:10:51;4.95;;;1.20;;
76094;SDS011;64821;13.710;100.604;2023-07-08T21:11:55;4.75;;;1.30;;
76094;SDS011;64821;13.710;100.604;2023-07-08T21:12:59;4.60;;;1.20;;
76094;SDS011;64821;13.710;100.604;2023-07-08T21:14:03;5.32;;;1.58;;
76094;SDS011;64821;13.710;100.604;2023-07-08T21:15:07;5.20;;;1.30;;
76094;SDS011;64821;13.710;100.604;2023-07-08T21:16:12;5.68;;;1.35;;
76094;SDS011;64821;13.710;100.604;2023-07-08T21:17:19;4.82;;;1.23;;
76094;SDS011;64821;13.710;100.604;2023-07-08T21:18:29;4.95;;;1.33;;
76094;SDS011;64821;13.710;100.604;2023-07-08T21:19:36;5.40;;;1.60;;
76094;SDS011;64821;13.710;100.604;2023-07-08T21:20:40;4.93;;;1.37;;
76094;SDS011;64821;13.710;100.604;2023-07-08T21:21:43;5.95;;;1.60;;
76094;SDS011;64821;13.710;100.604;2023-07-08T21:22:47;5.22;;;1.40;;
76094;SDS011;64821;13.710;100.604;2023-07-08T21:23:51;5.93;;;1.60;;
76094;SDS011;64821;13.710;100.604;2023-07-08T21:24:55;5.00;;;1.30;;
76094;SDS011;64821;13.710;100.604;2023-07-08T21:25:59;5.13;;;1.30;;
76094;SDS011;64821;13.710;100.604;2023-07-08T21:27:04;5.55;;;1.50;;
76094;SDS011;64821;13.710;100.604;2023-07-08T21:28:09;5.10;;;1.38;;
76094;SDS011;64821;13.710;100.604;2023-07-08T21:29:26;5.38;;;1.60;;
76094;SDS011;64821;13.710;100.604;2023-07-08T21:30:30;5.60;;;1.50;;
76094;SDS011;64821;13.710;100.604;2023-07-08T21:31:34;4.93;;;1.53;;
76094;SDS011;64821;13.710;100.604;2023-07-08T21:32:39;5.40;;;1.40;;
76094;SDS011;64821;13.710;100.604;2023-07-08T21:33:43;5.93;;;1.63;;
76094;SDS011;64821;13.710;100.604;2023-07-08T21:34:47;5.00;;;1.50;;
76094;SDS011;64821;13.710;100.604;2023-07-08T21:35:51;4.50;;;1.25;;
76094;SDS011;64821;13.710;100.604;2023-07-08T21:36:58;5.27;;;1.50;;
76094;SDS011;64821;13.710;100.604;2023-07-08T21:38:02;4.82;;;1.42;;
76094;SDS011;64821;13.710;100.604;2023-07-08T21:39:11;6.10;;;1.35;;
76094;SDS011;64821;13.710;100.604;2023-07-08T21:40:29;4.85;;;1.40;;
76094;SDS011;64821;13.710;100.604;2023-07-08T21:41:36;5.38;;;1.42;;
76094;SDS011;64821;13.710;100.604;2023-07-08T21:42:40;6.63;;;1.50;;
76094;SDS011;64821;13.710;100.604;2023-07-08T21:43:43;5.70;;;1.30;;
76094;SDS011;64821;13.710;100.604;2023-07-08T21:44:47;4.55;;;1.23;;
76094;SDS011;64821;13.710;100.604;2023-07-08T21:45:51;5.70;;;1.20;;
76094;SDS011;64821;13.710;100.604;2023-07-08T21:46:55;4.90;;;1.45;;
76094;SDS011;64821;13.710;100.604;2023-07-08T21:48:00;5.30;;;1.40;;
76094;SDS011;64821;13.710;100.604;2023-07-08T21:49:05;6.30;;;1.40;;
76094;SDS011;64821;13.710;100.604;2023-07-08T21:50:09;5.38;;;1.52;;
76094;SDS011;64821;13.710;100.604;2023-07-08T21:51:15;4.88;;;1.23;;
76094;SDS011;64821;13.710;100.604;2023-07-08T21:52:24;5.78;;;1.80;;
76094;SDS011;64821;13.710;100.604;2023-07-08T21:53:30;4.93;;;1.47;;
76094;SDS011;64821;13.710;100.604;2023-07-08T21:54:35;5.03;;;1.35;;
76094;SDS011;64821;13.710;100.604;2023-07-08T21:55:39;5.22;;;1.60;;
76094;SDS011;64821;13.710;100.604;2023-07-08T21:56:42;4.75;;;1.35;;
76094;SDS011;64821;13.710;100.604;2023-07-08T21:57:46;4.80;;;1.45;;
76094;SDS011;64821;13.710;100.604;2023-07-08T21:58:50;5.20;;;1.40;;
76094;SDS011;64821;13.710;100.604;2023-07-08T21:59:54;5.25;;;1.40;;
76094;SDS011;64821;13.710;100.604;2023-07-08T22:00:58;6.13;;;1.45;;
76094;SDS011;64821;13.710;100.604;2023-07-08T22:02:02;5.18;;;1.50;;
76094;SDS011;64821;13.710;100.604;2023-07-08T22:03:10;4.68;;;1.30;;
76094;SDS011;64821;13.710;100.604;2023-07-08T22:04:14;5.17;;;1.50;;
76094;SDS011;64821;13.710;100.604;2023-07-08T22:05:19;5.13;;;1.50;;
76094;SDS011;64821;13.710;100.604;2023-07-08T22:06:23;4.95;;;1.42;;
76094;SDS011;64821;13.710;100.604;2023-07-08T22:07:27;6.32;;;1.80;;
76094;SDS011;64821;13.710;100.604;2023-07-08T22:08:31;4.65;;;1.48;;
76094;SDS011;64821;13.710;100.604;2023-07-08T22:09:35;5.60;;;1.60;;
76094;SDS011;64821;13.710;100.604;2023-07-08T22:10:38;4.90;;;1.63;;
76094;SDS011;64821;13.710;100.604;2023-07-08T22:11:43;6.00;;;1.63;;
76094;SDS011;64821;13.710;100.604;2023-07-08T22:12:47;6.78;;;1.60;;
76094;SDS011;64821;13.710;100.604;2023-07-08T22:13:51;7.55;;;1.75;;
76094;SDS011;64821;13.710;100.604;2023-07-08T22:14:55;5.43;;;1.63;;
76094;SDS011;64821;13.710;100.604;2023-07-08T22:15:59;4.75;;;1.40;;
76094;SDS011;64821;13.710;100.604;2023-07-08T22:17:06;5.25;;;1.58;;
76094;SDS011;64821;13.710;100.604;2023-07-08T22:18:17;4.82;;;1.50;;
76094;SDS011;64821;13.710;100.604;2023-07-08T22:19:20;4.50;;;1.35;;
76094;SDS011;64821;13.710;100.604;2023-07-08T22:20:25;5.40;;;1.40;;
76094;SDS011;64821;13.710;100.604;2023-07-08T22:21:30;5.28;;;1.60;;
76094;SDS011;64821;13.710;100.604;2023-07-08T22:22:36;5.13;;;1.60;;
76094;SDS011;64821;13.710;100.604;2023-07-08T22:23:39;5.18;;;1.50;;
76094;SDS011;64821;13.710;100.604;2023-07-08T22:24:43;5.95;;;1.40;;
76094;SDS011;64821;13.710;100.604;2023-07-08T22:25:47;5.80;;;1.60;;
76094;SDS011;64821;13.710;100.604;2023-07-08T22:26:51;5.40;;;1.70;;
76094;SDS011;64821;13.710;100.604;2023-07-08T22:27:54;6.55;;;1.90;;
76094;SDS011;64821;13.710;100.604;2023-07-08T22:28:58;5.20;;;1.60;;
76094;SDS011;64821;13.710;100.604;2023-07-08T22:30:02;5.45;;;1.55;;
76094;SDS011;64821;13.710;100.604;2023-07-08T22:31:09;5.00;;;1.80;;
76094;SDS011;64821;13.710;100.604;2023-07-08T22:32:20;5.22;;;1.58;;
76094;SDS011;64821;13.710;100.604;2023-07-08T22:33:25;5.07;;;1.50;;
76094;SDS011;64821;13.710;100.604;2023-07-08T22:34:29;5.18;;;1.30;;
76094;SDS011;64821;13.710;100.604;2023-07-08T22:35:33;4.80;;;1.45;;
76094;SDS011;64821;13.710;100.604;2023-07-08T22:36:37;4.90;;;1.47;;
76094;SDS011;64821;13.710;100.604;2023-07-08T22:37:40;5.70;;;1.60;;
76094;SDS011;64821;13.710;100.604;2023-07-08T22:38:45;4.95;;;1.40;;
76094;SDS011;64821;13.710;100.604;2023-07-08T22:39:59;5.47;;;1.60;;
76094;SDS011;64821;13.710;100.604;2023-07-08T22:41:07;6.25;;;1.77;;
76094;SDS011;64821;13.710;100.604;2023-07-08T22:42:13;5.47;;;1.60;;
76094;SDS011;64821;13.710;100.604;2023-07-08T22:43:20;5.50;;;2.08;;
76094;SDS011;64821;13.710;100.604;2023-07-08T22:44:28;7.55;;;2.20;;
76094;SDS011;64821;13.710;100.604;2023-07-08T22:45:32;6.78;;;2.10;;
76094;SDS011;64821;13.710;100.604;2023-07-08T22:46:36;6.03;;;1.73;;
76094;SDS011;64821;13.710;100.604;2023-07-08T22:47:40;5.10;;;1.70;;
76094;SDS011;64821;13.710;100.604;2023-07-08T22:48:45;6.55;;;2.38;;
76094;SDS011;64821;13.710;100.604;2023-07-08T22:49:49;5.40;;;1.92;;
76094;SDS011;64821;13.710;100.604;2023-07-08T22:50:53;7.05;;;2.22;;
76094;SDS011;64821;13.710;100.604;2023-07-08T22:51:58;6.07;;;2.30;;
76094;SDS011;64821;13.710;100.604;2023-07-08T22:53:02;5.70;;;2.00;;
76094;SDS011;64821;13.710;100.604;2023-07-08T22:54:06;7.10;;;1.70;;
76094;SDS011;64821;13.710;100.604;2023-07-08T22:55:14;6.30;;;2.10;;
76094;SDS011;64821;13.710;100.604;2023-07-08T22:56:19;6.22;;;2.00;;
76094;SDS011;64821;13.710;100.604;2023-07-08T22:57:23;5.40;;;1.80;;
76094;SDS011;64821;13.710;100.604;2023-07-08T22:58:27;6.67;;;1.93;;
76094;SDS011;64821;13.710;100.604;2023-07-08T22:59:32;5.78;;;1.92;;
76094;SDS011;64821;13.710;100.604;2023-07-08T23:00:36;5.75;;;2.20;;
76094;SDS011;64821;13.710;100.604;2023-07-08T23:01:40;6.30;;;2.15;;
76094;SDS011;64821;13.710;100.604;2023-07-08T23:02:43;5.90;;;2.05;;
76094;SDS011;64821;13.710;100.604;2023-07-08T23:03:49;6.80;;;2.93;;
76094;SDS011;64821;13.710;100.604;2023-07-08T23:04:53;6.57;;;2.17;;
76094;SDS011;64821;13.710;100.604;2023-07-08T23:05:57;5.85;;;2.40;;
76094;SDS011;64821;13.710;100.604;2023-07-08T23:07:02;7.07;;;2.75;;
76094;SDS011;64821;13.710;100.604;2023-07-08T23:08:08;7.20;;;2.95;;
76094;SDS011;64821;13.710;100.604;2023-07-08T23:09:15;6.07;;;2.60;;
76094;SDS011;64821;13.710;100.604;2023-07-08T23:10:19;7.50;;;3.08;;
76094;SDS011;64821;13.710;100.604;2023-07-08T23:11:23;6.28;;;2.80;;
76094;SDS011;64821;13.710;100.604;2023-07-08T23:12:26;6.47;;;3.05;;
76094;SDS011;64821;13.710;100.604;2023-07-08T23:13:34;6.82;;;3.13;;
76094;SDS011;64821;13.710;100.604;2023-07-08T23:14:40;6.77;;;3.13;;
76094;SDS011;64821;13.710;100.604;2023-07-08T23:15:44;7.15;;;3.30;;
76094;SDS011;64821;13.710;100.604;2023-07-08T23:16:48;7.88;;;3.58;;
76094;SDS011;64821;13.710;100.604;2023-07-08T23:17:52;8.30;;;3.60;;
76094;SDS011;64821;13.710;100.604;2023-07-08T23:18:58;7.82;;;3.53;;
76094;SDS011;64821;13.710;100.604;2023-07-08T23:20:03;6.80;;;3.43;;
76094;SDS011;64821;13.710;100.604;2023-07-08T23:21:07;7.32;;;3.42;;
76094;SDS011;64821;13.710;100.604;2023-07-08T23:22:14;7.90;;;3.75;;
76094;SDS011;64821;13.710;100.604;2023-07-08T23:23:20;6.78;;;3.00;;
76094;SDS011;64821;13.710;100.604;2023-07-08T23:24:24;6.88;;;3.20;;
76094;SDS011;64821;13.710;100.604;2023-07-08T23:25:28;7.93;;;3.20;;
76094;SDS011;64821;13.710;100.604;2023-07-08T23:26:32;6.45;;;2.90;;
76094;SDS011;64821;13.710;100.604;2023-07-08T23:27:38;6.88;;;3.00;;
76094;SDS011;64821;13.710;100.604;2023-07-08T23:28:42;6.28;;;2.80;;
76094;SDS011;64821;13.710;100.604;2023-07-08T23:29:48;6.75;;;2.83;;
76094;SDS011;64821;13.710;100.604;2023-07-08T23:30:52;6.27;;;2.80;;
76094;SDS011;64821;13.710;100.604;2023-07-08T23:31:56;6.50;;;2.80;;
76094;SDS011;64821;13.710;100.604;2023-07-08T23:33:00;7.25;;;2.90;;
76094;SDS011;64821;13.710;100.604;2023-07-08T23:34:06;6.18;;;2.53;;
76094;SDS011;64821;13.710;100.604;2023-07-08T23:35:10;6.75;;;2.58;;
76094;SDS011;64821;13.710;100.604;2023-07-08T23:36:17;6.37;;;2.40;;
76094;SDS011;64821;13.710;100.604;2023-07-08T23:37:26;5.68;;;2.30;;
76094;SDS011;64821;13.710;100.604;2023-07-08T23:38:30;5.90;;;2.70;;
76094;SDS011;64821;13.710;100.604;2023-07-08T23:39:34;5.68;;;2.40;;
76094;SDS011;64821;13.710;100.604;2023-07-08T23:40:37;6.35;;;2.40;;
76094;SDS011;64821;13.710;100.604;2023-07-08T23:41:41;6.17;;;2.30;;
76094;SDS011;64821;13.710;100.604;2023-07-08T23:42:46;6.10;;;2.47;;
76094;SDS011;64821;13.710;100.604;2023-07-08T23:43:49;6.60;;;2.35;;
76094;SDS011;64821;13.710;100.604;2023-07-08T23:44:53;6.05;;;2.50;;
76094;SDS011;64821;13.710;100.604;2023-07-08T23:45:57;6.95;;;2.60;;
76094;SDS011;64821;13.710;100.604;2023-07-08T23:47:00;5.97;;;2.70;;
76094;SDS011;64821;13.710;100.604;2023-07-08T23:48:04;6.70;;;2.92;;
76094;SDS011;64821;13.710;100.604;2023-07-08T23:49:15;6.32;;;2.83;;
76094;SDS011;64821;13.710;100.604;2023-07-08T23:50:22;7.32;;;3.25;;
76094;SDS011;64821;13.710;100.604;2023-07-08T23:51:26;6.93;;;3.05;;
76094;SDS011;64821;13.710;100.604;2023-07-08T23:52:30;6.20;;;2.43;;
76094;SDS011;64821;13.710;100.604;2023-07-08T23:53:34;6.38;;;2.60;;
76094;SDS011;64821;13.710;100.604;2023-07-08T23:54:37;7.32;;;2.80;;
76094;SDS011;64821;13.710;100.604;2023-07-08T23:55:41;6.90;;;2.92;;
76094;SDS011;64821;13.710;100.604;2023-07-08T23:56:46;6.40;;;2.50;;
76094;SDS011;64821;13.710;100.604;2023-07-08T23:57:51;5.63;;;2.57;;
76094;SDS011;64821;13.710;100.604;2023-07-08T23:58:54;6.38;;;2.53;;
76094;SDS011;64821;13.710;100.604;2023-07-08T23:59:58;7.53;;;3.60;;
